Time;durP1;ratioP1;P1;durP2;ratioP2;P2;SDS_P1;SDS_P2;PMS_P1;PMS_P2;Temp;Humidity;BMP_temperature;BMP_pressure;BME280_temperature;BME280_humidity;BME280_pressure;Samples;Min_cycle;Max_cycle;Signal;HPM_P1;HPM_P2
2023/11/28 00:01:56;;;;;;;23.67;11.30;;;0.80;99.90;;;;;;4235637;28;20449;-76
2023/11/28 00:03:58;;;;;;;22.57;11.23;;;0.70;99.90;;;;;;4231599;28;20494;-77
2023/11/28 00:06:02;;;;;;;22.83;10.23;;;0.80;99.90;;;;;;4240229;28;20212;-77
2023/11/28 00:08:05;;;;;;;21.33;10.20;;;1.00;99.90;;;;;;4234665;28;20485;-76
2023/11/28 00:10:08;;;;;;;23.10;10.13;;;0.80;99.90;;;;;;4226366;28;20508;-77
2023/11/28 00:12:10;;;;;;;22.77;10.57;;;0.80;99.90;;;;;;4242361;27;20445;-77
2023/11/28 00:14:12;;;;;;;21.43;9.80;;;0.70;99.90;;;;;;4239279;27;20454;-78
2023/11/28 00:16:13;;;;;;;22.27;10.17;;;0.80;99.90;;;;;;4234797;27;21008;-78
2023/11/28 00:18:15;;;;;;;20.43;9.90;;;0.80;99.90;;;;;;4237689;27;20468;-76
2023/11/28 00:20:17;;;;;;;21.83;10.10;;;0.80;99.90;;;;;;4234756;28;20438;-77
2023/11/28 00:22:18;;;;;;;22.03;9.97;;;0.80;99.90;;;;;;4232654;27;20446;-77
2023/11/28 00:24:20;;;;;;;21.07;10.27;;;0.80;99.90;;;;;;4238026;28;20529;-76
2023/11/28 00:26:24;;;;;;;18.70;8.93;;;0.70;99.90;;;;;;4232422;28;20454;-77
2023/11/28 00:28:26;;;;;;;17.67;8.70;;;0.80;99.90;;;;;;4226026;27;20553;-79
2023/11/28 00:30:31;;;;;;;17.47;9.07;;;0.70;99.90;;;;;;4239088;27;20914;-77
2023/11/28 00:32:33;;;;;;;19.27;8.20;;;0.70;99.90;;;;;;4242945;27;20492;-76
2023/11/28 00:34:34;;;;;;;19.17;9.20;;;0.70;99.90;;;;;;4241579;27;20771;-76
2023/11/28 00:36:36;;;;;;;17.77;8.90;;;0.70;99.90;;;;;;4244043;27;20455;-77
2023/11/28 00:38:38;;;;;;;16.23;8.13;;;0.80;99.90;;;;;;4248848;27;20228;-78
2023/11/28 00:40:41;;;;;;;17.33;8.20;;;0.80;99.90;;;;;;4246091;27;20444;-77
2023/11/28 00:42:44;;;;;;;14.67;7.57;;;0.80;99.90;;;;;;4239515;27;20440;-77
2023/11/28 00:44:46;;;;;;;15.57;7.70;;;0.70;99.90;;;;;;4247070;27;20447;-76
2023/11/28 00:46:48;;;;;;;14.63;7.40;;;0.70;99.90;;;;;;4242943;27;21071;-76
2023/11/28 00:48:50;;;;;;;14.90;7.40;;;0.70;99.90;;;;;;4242874;27;20481;-76
2023/11/28 00:50:52;;;;;;;13.30;6.67;;;0.70;99.90;;;;;;4249231;27;20448;-76
2023/11/28 00:52:53;;;;;;;15.50;7.33;;;0.70;99.90;;;;;;4228676;27;20932;-79
2023/11/28 00:54:55;;;;;;;14.30;7.00;;;0.80;99.90;;;;;;4239384;27;20447;-78
2023/11/28 00:56:57;;;;;;;13.80;6.93;;;0.70;99.90;;;;;;4240239;27;20291;-78
2023/11/28 00:59:00;;;;;;;12.30;6.60;;;0.80;99.90;;;;;;4240454;27;20521;-79
2023/11/28 01:01:03;;;;;;;11.23;6.13;;;0.80;99.90;;;;;;4242291;27;20472;-78
2023/11/28 01:03:05;;;;;;;12.60;6.53;;;0.70;99.90;;;;;;4244358;27;20444;-78
2023/11/28 01:05:09;;;;;;;13.30;6.37;;;0.70;99.90;;;;;;4237198;27;20529;-80
2023/11/28 01:07:11;;;;;;;12.53;6.40;;;0.70;99.90;;;;;;4241693;27;20483;-80
2023/11/28 01:09:14;;;;;;;11.83;6.17;;;0.70;99.90;;;;;;4247306;27;20441;-79
2023/11/28 01:11:16;;;;;;;11.37;6.07;;;0.70;99.90;;;;;;4241416;27;20986;-79
2023/11/28 01:13:19;;;;;;;12.47;6.50;;;0.70;99.90;;;;;;4243006;27;20449;-79
2023/11/28 01:15:23;;;;;;;10.87;5.43;;;0.70;99.90;;;;;;4224070;27;20469;-78
2023/11/28 01:17:25;;;;;;;13.33;7.10;;;0.70;99.90;;;;;;4235002;27;21024;-79
2023/11/28 01:19:26;;;;;;;12.00;6.43;;;0.80;99.90;;;;;;4239572;27;20450;-76
2023/11/28 01:21:28;;;;;;;12.37;6.70;;;0.70;99.90;;;;;;4242464;27;20494;-76
2023/11/28 01:23:30;;;;;;;11.67;6.10;;;0.70;99.90;;;;;;4237665;27;20259;-77
2023/11/28 01:25:31;;;;;;;12.90;6.47;;;0.70;99.90;;;;;;4239846;27;20441;-77
2023/11/28 01:27:33;;;;;;;11.97;6.50;;;0.70;99.90;;;;;;4237885;27;20474;-76
2023/11/28 01:29:36;;;;;;;13.77;6.57;;;0.70;99.90;;;;;;4235928;27;20491;-77
2023/11/28 01:31:39;;;;;;;12.17;6.20;;;0.70;99.90;;;;;;4236391;27;20975;-75
2023/11/28 01:33:41;;;;;;;12.73;6.67;;;0.70;99.90;;;;;;4234873;27;20839;-74
2023/11/28 01:35:43;;;;;;;12.73;6.40;;;0.70;99.90;;;;;;4221191;28;20520;-77
2023/11/28 01:37:45;;;;;;;12.07;5.93;;;0.80;99.90;;;;;;4243012;27;20514;-76
2023/11/28 01:39:47;;;;;;;10.83;6.20;;;0.70;99.90;;;;;;4235028;27;20507;-75
2023/11/28 01:41:50;;;;;;;11.33;6.00;;;0.90;99.90;;;;;;4242375;27;20449;-77
2023/11/28 01:43:52;;;;;;;10.27;5.77;;;0.80;99.90;;;;;;4244820;27;20991;-77
2023/11/28 01:45:54;;;;;;;12.33;6.73;;;0.60;99.90;;;;;;4239467;27;20442;-75
2023/11/28 01:47:58;;;;;;;11.60;6.00;;;0.70;99.90;;;;;;4238012;27;20547;-78
2023/11/28 01:50:00;;;;;;;10.40;6.10;;;0.70;99.90;;;;;;4239552;27;21414;-76
2023/11/28 01:52:03;;;;;;;11.37;6.13;;;0.70;99.90;;;;;;4235478;27;20444;-76
2023/11/28 01:54:07;;;;;;;13.73;6.20;;;0.80;99.90;;;;;;4237649;27;20922;-77
2023/11/28 01:56:11;;;;;;;11.80;6.27;;;0.70;99.90;;;;;;4237521;27;20442;-79
2023/11/28 01:58:15;;;;;;;12.90;6.57;;;0.70;99.90;;;;;;4237316;27;20512;-79
2023/11/28 02:00:18;;;;;;;10.27;6.10;;;0.70;99.90;;;;;;4240034;27;20446;-79
2023/11/28 02:02:19;;;;;;;10.20;5.37;;;0.70;99.90;;;;;;4235189;27;20443;-78
2023/11/28 02:04:22;;;;;;;11.57;5.73;;;0.70;99.90;;;;;;4241593;27;20452;-77
2023/11/28 02:06:24;;;;;;;10.67;5.90;;;0.70;99.90;;;;;;4234256;27;20501;-78
2023/11/28 02:08:26;;;;;;;11.83;6.20;;;0.70;99.90;;;;;;4237325;27;20480;-77
2023/11/28 02:10:28;;;;;;;10.20;5.47;;;0.70;99.90;;;;;;4238762;27;20533;-77
2023/11/28 02:12:29;;;;;;;11.00;6.17;;;0.70;99.90;;;;;;4239233;27;20448;-78
2023/11/28 02:14:31;;;;;;;10.27;5.87;;;0.70;99.90;;;;;;4240120;27;20495;-78
2023/11/28 02:16:33;;;;;;;11.23;6.27;;;0.70;99.90;;;;;;4239575;27;20450;-79
2023/11/28 02:18:35;;;;;;;10.53;5.83;;;0.70;99.90;;;;;;4238362;27;20469;-79
2023/11/28 02:20:39;;;;;;;12.53;6.00;;;0.70;99.90;;;;;;4242140;27;20491;-78
2023/11/28 02:22:40;;;;;;;11.43;5.77;;;0.70;99.90;;;;;;4231066;27;20442;-79
2023/11/28 02:24:44;;;;;;;10.20;5.70;;;0.70;99.90;;;;;;4220223;27;21276;-76
2023/11/28 02:26:48;;;;;;;10.83;6.23;;;0.70;99.90;;;;;;4223284;28;20450;-75
2023/11/28 02:28:48;;;;;;;11.10;6.67;;;0.70;99.90;;;;;;4233883;27;20499;-76
2023/11/28 02:30:52;;;;;;;14.57;6.10;;;0.70;99.90;;;;;;4238868;27;20452;-75
2023/11/28 02:32:53;;;;;;;12.73;7.10;;;0.70;99.90;;;;;;4241868;27;20256;-76
2023/11/28 02:34:55;;;;;;;14.13;6.93;;;0.70;99.90;;;;;;4236025;27;20436;-76
2023/11/28 02:36:57;;;;;;;12.53;7.33;;;0.70;99.90;;;;;;4215762;28;20212;-75
2023/11/28 02:38:59;;;;;;;14.13;6.97;;;0.70;99.90;;;;;;4235764;27;20461;-76
2023/11/28 02:41:00;;;;;;;13.87;7.50;;;0.70;99.90;;;;;;4240400;27;20461;-75
2023/11/28 02:43:03;;;;;;;14.67;7.43;;;0.70;99.90;;;;;;4237971;27;20437;-75
2023/11/28 02:45:08;;;;;;;14.63;7.67;;;0.70;99.90;;;;;;4233969;27;20448;-75
2023/11/28 02:47:10;;;;;;;13.93;7.37;;;0.70;99.90;;;;;;4236446;27;20449;-75
2023/11/28 02:49:12;;;;;;;12.70;6.77;;;0.70;99.90;;;;;;4240528;27;20509;-75
2023/11/28 02:51:19;;;;;;;14.73;7.20;;;0.70;99.90;;;;;;4238606;27;20500;-75
2023/11/28 02:53:21;;;;;;;13.80;6.93;;;0.60;99.90;;;;;;4234027;27;20453;-75
2023/11/28 02:55:23;;;;;;;14.30;7.27;;;0.70;99.90;;;;;;4235941;27;20502;-76
2023/11/28 02:57:23;;;;;;;12.10;6.80;;;0.70;99.90;;;;;;4227482;27;21237;-75
2023/11/28 02:59:27;;;;;;;13.47;7.00;;;0.60;99.90;;;;;;4238859;27;20444;-76
2023/11/28 03:01:29;;;;;;;11.97;6.43;;;0.70;99.90;;;;;;4238746;27;20212;-76
2023/11/28 03:03:31;;;;;;;12.63;6.97;;;0.70;99.90;;;;;;4240412;27;20514;-75
2023/11/28 03:05:33;;;;;;;13.03;6.87;;;0.70;99.90;;;;;;4243479;27;20479;-75
2023/11/28 03:07:34;;;;;;;12.33;6.27;;;0.70;99.90;;;;;;4245323;27;20465;-75
2023/11/28 03:09:36;;;;;;;12.30;6.60;;;0.70;99.90;;;;;;4241968;27;20480;-75
2023/11/28 03:11:38;;;;;;;13.47;6.97;;;0.60;99.90;;;;;;4254931;27;20916;-76
2023/11/28 03:13:39;;;;;;;11.30;6.50;;;0.70;99.90;;;;;;4246812;27;20834;-76
2023/11/28 03:15:43;;;;;;;13.07;6.67;;;0.70;99.90;;;;;;4239941;27;20488;-74
2023/11/28 03:17:45;;;;;;;12.37;6.83;;;0.60;99.90;;;;;;4241867;27;20229;-76
2023/11/28 03:19:47;;;;;;;14.43;7.23;;;0.70;99.90;;;;;;4238947;27;20480;-75
2023/11/28 03:21:49;;;;;;;14.80;7.20;;;0.60;99.90;;;;;;4233770;27;20461;-76
2023/11/28 03:23:50;;;;;;;14.27;7.43;;;0.70;99.90;;;;;;4237077;27;20454;-76
2023/11/28 03:25:52;;;;;;;13.37;7.33;;;0.60;99.90;;;;;;4237279;27;20444;-78
2023/11/28 03:27:54;;;;;;;17.90;8.07;;;0.60;99.90;;;;;;4232260;27;20874;-78
2023/11/28 03:29:58;;;;;;;12.50;6.83;;;0.60;99.90;;;;;;4235845;27;20858;-79
2023/11/28 03:32:02;;;;;;;13.33;6.67;;;0.60;99.90;;;;;;4236572;27;20456;-79
2023/11/28 03:34:04;;;;;;;14.10;7.50;;;0.60;99.90;;;;;;4229067;27;21093;-77
2023/11/28 03:36:07;;;;;;;14.73;6.83;;;0.60;99.90;;;;;;4235735;27;20461;-78
2023/11/28 03:38:09;;;;;;;12.93;7.17;;;0.70;99.90;;;;;;4221067;27;20546;-77
2023/11/28 03:40:12;;;;;;;15.57;7.83;;;0.60;99.90;;;;;;4245394;27;20440;-79
2023/11/28 03:42:13;;;;;;;14.67;7.43;;;0.60;99.90;;;;;;4242686;28;20441;-79
2023/11/28 03:44:15;;;;;;;13.23;6.80;;;0.70;99.90;;;;;;4236117;28;20520;-77
2023/11/28 03:46:18;;;;;;;15.03;7.80;;;0.60;99.90;;;;;;4238672;28;20205;-79
2023/11/28 03:48:22;;;;;;;15.73;8.00;;;0.60;99.90;;;;;;4233139;28;20482;-79
2023/11/28 03:50:24;;;;;;;15.43;7.90;;;0.60;99.90;;;;;;4236600;28;20445;-77
2023/11/28 03:52:24;;;;;;;18.77;9.50;;;0.70;99.90;;;;;;4236868;28;20454;-77
2023/11/28 03:54:26;;;;;;;19.73;9.33;;;0.60;99.90;;;;;;4232421;28;20433;-77
2023/11/28 03:56:28;;;;;;;19.13;9.57;;;0.70;99.90;;;;;;4244303;27;20251;-78
2023/11/28 03:58:30;;;;;;;15.13;8.50;;;0.60;99.90;;;;;;4239540;28;21051;-77
2023/11/28 04:00:32;;;;;;;19.77;9.77;;;0.70;99.90;;;;;;4233887;28;21048;-78
2023/11/28 04:02:34;;;;;;;21.60;10.70;;;0.60;99.90;;;;;;4238255;27;20498;-78
2023/11/28 04:04:38;;;;;;;24.17;11.17;;;0.60;99.90;;;;;;4240558;27;20437;-77
2023/11/28 04:06:40;;;;;;;22.33;10.43;;;0.60;99.90;;;;;;4239162;27;21204;-79
2023/11/28 04:08:40;;;;;;;23.67;11.07;;;0.60;99.90;;;;;;4231176;27;20515;-78
2023/11/28 04:10:42;;;;;;;21.97;11.20;;;0.60;99.90;;;;;;4242695;27;20486;-75
2023/11/28 04:12:44;;;;;;;23.37;12.03;;;0.80;99.90;;;;;;4245534;27;20208;-75
2023/11/28 04:14:46;;;;;;;24.97;12.63;;;0.60;99.90;;;;;;4237555;27;20449;-75
2023/11/28 04:16:49;;;;;;;25.43;12.53;;;0.60;99.90;;;;;;4244984;27;20817;-75
2023/11/28 04:18:52;;;;;;;25.03;12.60;;;0.60;99.90;;;;;;4245869;27;20471;-76
2023/11/28 04:20:55;;;;;;;28.33;11.77;;;0.60;99.90;;;;;;4245121;27;20448;-75
2023/11/28 04:22:57;;;;;;;25.73;11.93;;;0.60;99.90;;;;;;4237695;27;20464;-75
2023/11/28 04:24:59;;;;;;;28.23;12.30;;;0.60;99.90;;;;;;4242003;27;20537;-75
2023/11/28 04:27:01;;;;;;;26.63;12.33;;;0.60;99.90;;;;;;4243875;27;20434;-77
2023/11/28 04:29:03;;;;;;;26.63;11.53;;;0.60;99.90;;;;;;4235147;27;20473;-77
2023/11/28 04:31:05;;;;;;;24.40;10.67;;;0.60;99.90;;;;;;4237873;27;20495;-77
2023/11/28 04:33:07;;;;;;;26.00;12.37;;;0.60;99.90;;;;;;4243010;27;20506;-77
2023/11/28 04:35:09;;;;;;;25.60;11.07;;;0.60;99.90;;;;;;4242187;27;20935;-77
2023/11/28 04:37:12;;;;;;;25.03;12.07;;;0.60;99.90;;;;;;4243693;27;20959;-77
2023/11/28 04:39:14;;;;;;;22.03;10.50;;;0.60;99.90;;;;;;4226753;28;20519;-77
2023/11/28 04:41:15;;;;;;;23.23;11.73;;;0.60;99.90;;;;;;4238901;27;20497;-79
2023/11/28 04:43:17;;;;;;;24.60;12.33;;;0.30;99.90;;;;;;4246877;27;20448;-77
2023/11/28 04:45:19;;;;;;;24.17;11.83;;;0.60;99.90;;;;;;4227561;27;20684;-77
2023/11/28 04:47:21;;;;;;;25.23;11.87;;;0.60;99.90;;;;;;4241482;27;20443;-80
2023/11/28 04:49:23;;;;;;;24.70;12.17;;;0.40;99.90;;;;;;4232746;27;20469;-77
2023/11/28 04:51:25;;;;;;;24.77;12.23;;;0.50;99.90;;;;;;4242844;27;20467;-77
2023/11/28 04:53:29;;;;;;;27.27;12.57;;;0.50;99.90;;;;;;4241934;27;20446;-78
2023/11/28 04:55:30;;;;;;;23.87;12.30;;;0.50;99.90;;;;;;4231810;28;20455;-79
2023/11/28 04:57:32;;;;;;;30.07;13.67;;;0.50;99.90;;;;;;4231784;28;20462;-77
2023/11/28 04:59:34;;;;;;;26.93;12.97;;;0.40;99.90;;;;;;4230946;28;20457;-77
2023/11/28 05:01:43;;;;;;;30.73;13.80;;;0.50;99.90;;;;;;4232855;27;20453;-77
2023/11/28 05:03:48;;;;;;;27.10;13.13;;;0.40;99.90;;;;;;4238440;27;20486;-79
2023/11/28 05:05:50;;;;;;;25.70;12.77;;;0.50;99.90;;;;;;4239869;27;20491;-77
2023/11/28 05:07:52;;;;;;;27.60;13.63;;;0.50;99.90;;;;;;4220009;28;20510;-77
2023/11/28 05:09:54;;;;;;;31.80;13.80;;;0.40;99.90;;;;;;4221809;28;20841;-78
2023/11/28 05:11:56;;;;;;;25.87;11.77;;;0.40;99.90;;;;;;4241310;27;20451;-76
2023/11/28 05:13:59;;;;;;;30.60;13.23;;;0.40;99.90;;;;;;4247133;27;20968;-77
2023/11/28 05:16:01;;;;;;;31.70;14.57;;;0.30;99.90;;;;;;4237605;27;20469;-76
2023/11/28 05:18:03;;;;;;;25.33;12.57;;;0.30;99.90;;;;;;4243168;27;20468;-76
2023/11/28 05:20:05;;;;;;;27.47;13.07;;;0.30;99.90;;;;;;4221474;28;20449;-77
2023/11/28 05:22:08;;;;;;;27.67;13.60;;;0.30;99.90;;;;;;4248249;27;20448;-77
2023/11/28 05:24:10;;;;;;;27.90;12.87;;;0.30;99.90;;;;;;4253734;27;20445;-76
2023/11/28 05:26:13;;;;;;;27.93;13.50;;;0.30;99.90;;;;;;4249313;27;20246;-77
2023/11/28 05:28:16;;;;;;;30.17;12.43;;;0.30;99.90;;;;;;4265078;27;20465;-78
2023/11/28 05:30:18;;;;;;;25.10;11.77;;;0.30;99.90;;;;;;4248078;27;20473;-77
2023/11/28 05:32:23;;;;;;;26.03;11.63;;;0.30;99.90;;;;;;4256252;27;20453;-77
2023/11/28 05:34:25;;;;;;;21.00;10.53;;;0.30;99.90;;;;;;4246756;27;20444;-74
2023/11/28 05:36:27;;;;;;;26.80;12.20;;;0.30;99.90;;;;;;4221624;28;20843;-75
2023/11/28 05:38:29;;;;;;;26.47;12.17;;;0.30;99.90;;;;;;4238807;27;20496;-74
2023/11/28 05:40:31;;;;;;;26.63;11.77;;;0.30;99.90;;;;;;4236710;27;20452;-75
2023/11/28 05:42:33;;;;;;;24.17;11.90;;;0.20;99.90;;;;;;4232335;27;20511;-75
2023/11/28 05:44:35;;;;;;;26.83;12.67;;;0.20;99.90;;;;;;4234282;27;20472;-74
2023/11/28 05:46:37;;;;;;;25.07;12.03;;;0.20;99.90;;;;;;4240867;27;20814;-78
2023/11/28 05:48:39;;;;;;;26.20;12.73;;;0.20;99.90;;;;;;4241515;27;20462;-77
2023/11/28 05:50:41;;;;;;;24.37;11.70;;;0.20;99.90;;;;;;4240933;27;20449;-80
2023/11/28 05:52:42;;;;;;;28.03;13.10;;;0.20;99.90;;;;;;4238076;27;20529;-77
2023/11/28 05:54:44;;;;;;;27.37;12.60;;;0.20;99.90;;;;;;4218134;27;20529;-76
2023/11/28 05:56:47;;;;;;;29.27;13.20;;;0.20;99.90;;;;;;4240889;27;20492;-77
2023/11/28 05:58:50;;;;;;;29.10;13.00;;;0.20;99.90;;;;;;4240180;27;20468;-79
2023/11/28 06:00:52;;;;;;;30.93;12.60;;;0.20;99.90;;;;;;4238826;27;20952;-77
2023/11/28 06:02:54;;;;;;;29.50;13.33;;;0.20;99.90;;;;;;4239351;27;20951;-76
2023/11/28 06:04:56;;;;;;;29.67;12.90;;;0.20;99.90;;;;;;4243859;27;20445;-79
2023/11/28 06:06:57;;;;;;;30.43;13.03;;;0.20;99.90;;;;;;4237203;27;20453;-77
2023/11/28 06:08:59;;;;;;;29.83;13.67;;;0.20;99.90;;;;;;4245066;27;20952;-77
2023/11/28 06:11:01;;;;;;;28.80;12.33;;;0.10;99.90;;;;;;4240869;27;20448;-80
2023/11/28 06:13:03;;;;;;;27.63;12.43;;;0.10;99.90;;;;;;4242072;27;20505;-77
2023/11/28 06:15:08;;;;;;;31.13;13.63;;;0.10;99.90;;;;;;4248485;27;20532;-78
2023/11/28 06:17:12;;;;;;;29.43;13.40;;;0.10;99.90;;;;;;4240581;27;20439;-76
2023/11/28 06:19:15;;;;;;;32.90;13.53;;;0.10;99.90;;;;;;4243738;27;20518;-77
2023/11/28 06:21:16;;;;;;;29.13;13.13;;;0.10;99.90;;;;;;4235255;27;20457;-79
2023/11/28 06:23:19;;;;;;;29.30;13.50;;;0.10;99.90;;;;;;4239650;27;20510;-78
2023/11/28 06:25:20;;;;;;;30.73;14.37;;;0.10;99.90;;;;;;4241122;27;20233;-78
2023/11/28 06:27:22;;;;;;;34.00;14.37;;;0.20;99.90;;;;;;4238286;27;20890;-79
2023/11/28 06:29:24;;;;;;;36.77;15.27;;;0.10;99.90;;;;;;4239012;27;20485;-78
2023/11/28 06:31:27;;;;;;;34.10;15.03;;;0.10;99.90;;;;;;4238478;27;20453;-77
2023/11/28 06:33:29;;;;;;;30.27;14.80;;;0.10;99.90;;;;;;4235756;27;20442;-79
2023/11/28 06:35:34;;;;;;;31.80;13.73;;;0.10;99.90;;;;;;4243002;27;20496;-80
2023/11/28 06:37:36;;;;;;;32.63;16.13;;;0.10;99.90;;;;;;4216990;28;20993;-78
2023/11/28 06:39:39;;;;;;;37.10;16.00;;;0.00;99.90;;;;;;4238010;27;20471;-76
2023/11/28 06:41:43;;;;;;;34.63;15.13;;;0.00;99.90;;;;;;4238664;27;20441;-76
2023/11/28 06:43:45;;;;;;;31.27;15.07;;;0.00;99.90;;;;;;4238507;27;20932;-76
2023/11/28 06:45:48;;;;;;;35.20;14.97;;;0.00;99.90;;;;;;4238832;27;20496;-74
2023/11/28 06:47:52;;;;;;;33.93;15.00;;;0.00;99.90;;;;;;4235714;27;20469;-74
2023/11/28 06:49:54;;;;;;;32.53;14.30;;;0.00;99.90;;;;;;4241231;27;20527;-75
2023/11/28 06:51:56;;;;;;;32.70;14.17;;;0.00;99.90;;;;;;4231458;27;20486;-75
2023/11/28 06:53:57;;;;;;;28.20;14.13;;;0.00;99.90;;;;;;4242226;27;20503;-77
2023/11/28 06:56:00;;;;;;;32.03;14.40;;;0.00;99.90;;;;;;4240413;27;20442;-74
2023/11/28 06:58:02;;;;;;;32.90;14.63;;;0.00;99.90;;;;;;4241467;27;20465;-77
2023/11/28 07:00:05;;;;;;;33.00;14.03;;;0.00;99.90;;;;;;4237594;27;20444;-78
2023/11/28 07:02:07;;;;;;;29.13;13.20;;;0.00;99.90;;;;;;4242833;27;20865;-77
2023/11/28 07:04:10;;;;;;;31.50;12.80;;;0.00;99.90;;;;;;4242101;27;21038;-78
2023/11/28 07:06:11;;;;;;;30.87;12.93;;;0.00;99.90;;;;;;4235815;27;20858;-78
2023/11/28 07:08:13;;;;;;;28.70;13.07;;;0.00;99.90;;;;;;4233628;27;20505;-78
2023/11/28 07:10:15;;;;;;;27.63;12.87;;;0.00;99.90;;;;;;4229314;28;20272;-76
2023/11/28 07:12:17;;;;;;;24.97;12.23;;;0.00;99.90;;;;;;4233098;27;20855;-77
2023/11/28 07:14:19;;;;;;;29.37;12.37;;;0.00;99.90;;;;;;4232856;27;20466;-76
2023/11/28 07:16:20;;;;;;;25.57;12.47;;;0.00;99.90;;;;;;4237310;27;21104;-78
2023/11/28 07:18:22;;;;;;;28.33;12.77;;;0.00;99.90;;;;;;4236055;27;21203;-77
2023/11/28 07:20:26;;;;;;;26.50;11.30;;;0.00;99.90;;;;;;4244927;27;20506;-79
2023/11/28 07:22:28;;;;;;;29.93;13.80;;;0.70;99.90;;;;;;4235688;27;20507;-77
2023/11/28 07:24:30;;;;;;;27.33;13.07;;;0.00;99.90;;;;;;4238957;27;20490;-77
2023/11/28 07:26:31;;;;;;;26.73;11.43;;;0.00;99.90;;;;;;4235086;27;20932;-76
2023/11/28 07:28:34;;;;;;;31.67;12.73;;;0.10;99.90;;;;;;4242779;27;20876;-77
2023/11/28 07:30:35;;;;;;;24.40;11.87;;;0.00;99.90;;;;;;4235489;27;20484;-76
2023/11/28 07:32:37;;;;;;;25.50;11.67;;;0.00;99.90;;;;;;4233713;27;20448;-76
2023/11/28 07:34:39;;;;;;;25.40;11.40;;;0.00;99.90;;;;;;4238426;27;20504;-76
2023/11/28 07:36:47;;;;;;;26.40;11.57;;;0.00;99.90;;;;;;4236453;27;20471;-79
2023/11/28 07:38:49;;;;;;;29.43;12.80;;;0.00;99.90;;;;;;4237528;27;20465;-81
2023/11/28 07:40:53;;;;;;;31.03;13.47;;;0.00;99.90;;;;;;4237957;27;20457;-80
2023/11/28 07:42:54;;;;;;;28.50;12.97;;;0.00;99.90;;;;;;4236846;27;20465;-81
2023/11/28 07:44:56;;;;;;;30.60;13.57;;;0.00;99.90;;;;;;4241211;27;20987;-78
2023/11/28 07:46:58;;;;;;;27.00;12.37;;;0.00;99.90;;;;;;4234677;27;20639;-78
2023/11/28 07:49:00;;;;;;;25.13;11.27;;;0.00;99.90;;;;;;4235884;27;20863;-80
2023/11/28 07:51:03;;;;;;;21.90;10.33;;;0.00;99.90;;;;;;4244375;27;20477;-88
2023/11/28 07:53:06;;;;;;;22.23;10.53;;;0.00;99.90;;;;;;4243011;27;20448;-78
2023/11/28 07:55:08;;;;;;;21.40;10.23;;;0.00;99.90;;;;;;4237287;27;20456;-77
2023/11/28 07:57:10;;;;;;;25.77;11.07;;;0.00;99.90;;;;;;4234422;28;20447;-77
2023/11/28 07:59:11;;;;;;;25.63;10.73;;;0.00;99.90;;;;;;4239244;27;20465;-77
2023/11/28 08:01:13;;;;;;;23.00;10.07;;;0.30;99.90;;;;;;4239685;27;20442;-80
2023/11/28 08:03:15;;;;;;;23.73;10.37;;;0.00;99.90;;;;;;4236747;28;20208;-76
2023/11/28 08:05:17;;;;;;;20.87;10.43;;;0.10;99.90;;;;;;4236567;28;21014;-78
2023/11/28 08:07:18;;;;;;;20.50;10.40;;;0.00;99.90;;;;;;4217992;28;20442;-78
2023/11/28 08:09:23;;;;;;;21.93;10.57;;;0.30;99.90;;;;;;4239551;28;20440;-78
2023/11/28 08:11:25;;;;;;;26.47;11.30;;;0.00;99.90;;;;;;4235421;28;20472;-77
2023/11/28 08:13:27;;;;;;;21.87;10.50;;;0.00;99.90;;;;;;4219209;28;20458;-76
2023/11/28 08:15:29;;;;;;;23.20;10.73;;;0.00;99.90;;;;;;4240661;28;20461;-77
2023/11/28 08:17:30;;;;;;;23.70;10.60;;;0.00;99.90;;;;;;4237206;28;20816;-76
2023/11/28 08:19:33;;;;;;;20.77;9.87;;;0.00;99.90;;;;;;4234829;27;20506;-77
2023/11/28 08:21:35;;;;;;;18.40;9.80;;;0.00;99.90;;;;;;4242039;27;20575;-76
2023/11/28 08:23:38;;;;;;;22.77;9.30;;;0.10;99.90;;;;;;4225620;28;20574;-79
2023/11/28 08:25:41;;;;;;;20.63;9.70;;;0.00;99.90;;;;;;4235440;28;20444;-76
2023/11/28 08:27:43;;;;;;;18.50;9.13;;;0.00;99.90;;;;;;4214596;28;20497;-76
2023/11/28 08:29:44;;;;;;;19.67;9.33;;;0.00;99.90;;;;;;4236638;28;20856;-78
2023/11/28 08:31:46;;;;;;;21.13;9.53;;;0.00;99.90;;;;;;4237215;28;21055;-76
2023/11/28 08:33:48;;;;;;;19.97;8.97;;;0.00;99.90;;;;;;4229723;28;20448;-76
2023/11/28 08:35:49;;;;;;;20.13;8.67;;;0.00;99.90;;;;;;4238598;28;20451;-78
2023/11/28 08:37:51;;;;;;;19.83;8.50;;;0.00;99.90;;;;;;4218803;28;20991;-77
2023/11/28 08:39:53;;;;;;;17.10;8.20;;;0.10;99.90;;;;;;4233175;28;20509;-76
2023/11/28 08:41:57;;;;;;;19.57;8.03;;;0.00;99.90;;;;;;4240382;28;20458;-76
2023/11/28 08:43:59;;;;;;;15.73;8.17;;;0.00;99.90;;;;;;4234975;28;20449;-78
2023/11/28 08:46:00;;;;;;;14.70;7.00;;;0.00;99.90;;;;;;4238427;28;20445;-80
2023/11/28 08:48:02;;;;;;;15.93;7.57;;;0.00;99.90;;;;;;4238668;28;20468;-78
2023/11/28 08:50:06;;;;;;;15.87;7.23;;;0.00;99.90;;;;;;4243313;27;20280;-76
2023/11/28 08:52:10;;;;;;;16.03;7.77;;;0.00;99.90;;;;;;4238613;27;20451;-78
2023/11/28 08:54:12;;;;;;;14.70;7.13;;;0.10;99.90;;;;;;4237493;27;20487;-77
2023/11/28 08:56:14;;;;;;;13.20;7.20;;;0.10;99.90;;;;;;4242060;27;20442;-76
2023/11/28 08:58:16;;;;;;;13.33;7.00;;;0.10;99.90;;;;;;4238134;27;20469;-78
2023/11/28 09:00:19;;;;;;;15.87;6.30;;;0.10;99.90;;;;;;4238158;27;20868;-77
2023/11/28 09:02:23;;;;;;;13.77;7.00;;;0.10;99.90;;;;;;4239223;27;20447;-78
2023/11/28 09:04:25;;;;;;;16.50;7.10;;;0.20;99.90;;;;;;4242697;27;20501;-78
2023/11/28 09:06:27;;;;;;;14.77;7.10;;;0.10;99.90;;;;;;4234209;27;20460;-77
2023/11/28 09:08:29;;;;;;;12.63;6.00;;;0.20;99.90;;;;;;4238419;27;20465;-78
2023/11/28 09:10:31;;;;;;;14.00;7.13;;;0.20;99.90;;;;;;4240837;27;20533;-76
2023/11/28 09:12:34;;;;;;;13.67;6.77;;;0.10;99.90;;;;;;4237064;27;20502;-77
2023/11/28 09:14:37;;;;;;;14.90;6.17;;;0.20;99.90;;;;;;4241757;27;20912;-79
2023/11/28 09:16:40;;;;;;;14.40;6.70;;;0.10;99.90;;;;;;4240559;27;20476;-80
2023/11/28 09:18:42;;;;;;;13.90;6.80;;;0.20;99.90;;;;;;4238586;27;20852;-77
2023/11/28 09:20:44;;;;;;;12.23;6.30;;;0.20;99.90;;;;;;4238175;27;20440;-77
2023/11/28 09:22:47;;;;;;;12.70;6.63;;;0.20;99.90;;;;;;4236981;27;20968;-77
2023/11/28 09:24:48;;;;;;;15.90;6.60;;;0.20;99.90;;;;;;4240969;27;21058;-77
2023/11/28 09:26:50;;;;;;;17.30;7.67;;;0.20;99.90;;;;;;4240052;27;20435;-79
2023/11/28 09:28:52;;;;;;;15.20;7.03;;;0.10;99.90;;;;;;4241089;27;20219;-80
2023/11/28 09:30:55;;;;;;;14.50;7.20;;;0.10;99.90;;;;;;4222477;27;21066;-79
2023/11/28 09:32:57;;;;;;;15.17;7.43;;;0.10;99.90;;;;;;4241608;27;20456;-76
2023/11/28 09:34:59;;;;;;;18.20;7.77;;;0.10;99.90;;;;;;4223396;27;20457;-77
2023/11/28 09:37:02;;;;;;;16.67;8.37;;;0.10;99.90;;;;;;4238389;27;20778;-77
2023/11/28 09:39:05;;;;;;;19.60;8.50;;;0.10;99.90;;;;;;4241531;27;20496;-76
2023/11/28 09:41:08;;;;;;;18.97;8.60;;;0.10;99.90;;;;;;4239374;27;20801;-78
2023/11/28 09:43:11;;;;;;;20.17;8.70;;;0.20;99.90;;;;;;4219342;28;20470;-77
2023/11/28 09:45:14;;;;;;;20.43;8.83;;;0.20;99.90;;;;;;4240804;27;20974;-77
2023/11/28 09:47:20;;;;;;;19.07;8.27;;;0.10;99.90;;;;;;4240372;27;20867;-79
2023/11/28 09:49:23;;;;;;;21.00;8.60;;;0.10;99.90;;;;;;4239284;27;20449;-79
2023/11/28 09:51:27;;;;;;;20.10;8.90;;;0.20;99.90;;;;;;4237709;27;20473;-77
2023/11/28 09:53:32;;;;;;;20.30;9.50;;;0.10;99.90;;;;;;4234913;27;20503;-77
2023/11/28 09:55:34;;;;;;;19.90;8.63;;;0.20;99.90;;;;;;4238695;27;20457;-76
2023/11/28 09:57:41;;;;;;;17.87;8.67;;;0.10;99.90;;;;;;4240291;27;20537;-78
2023/11/28 09:59:46;;;;;;;18.97;8.77;;;0.10;99.90;;;;;;4220225;28;20465;-77
2023/11/28 10:01:48;;;;;;;23.13;9.50;;;1.00;99.90;;;;;;4234645;27;20495;-78
2023/11/28 10:03:51;;;;;;;20.03;10.03;;;0.20;99.90;;;;;;4237891;27;20510;-77
2023/11/28 10:05:56;;;;;;;24.43;10.13;;;0.10;99.90;;;;;;4238898;27;20865;-77
2023/11/28 10:07:59;;;;;;;20.57;9.87;;;0.10;99.90;;;;;;4242316;27;20514;-77
2023/11/28 10:10:08;;;;;;;27.40;11.63;;;0.10;99.90;;;;;;4238084;27;20932;-78
2023/11/28 10:12:10;;;;;;;25.17;10.60;;;0.10;99.90;;;;;;4221148;28;20770;-77
2023/11/28 10:14:12;;;;;;;22.43;10.00;;;0.10;99.90;;;;;;4240045;27;20932;-79
2023/11/28 10:16:20;;;;;;;25.13;10.40;;;0.10;99.90;;;;;;4240003;27;20934;-77
2023/11/28 10:18:22;;;;;;;25.30;10.57;;;0.10;99.90;;;;;;4237658;27;20465;-77
2023/11/28 10:20:27;;;;;;;25.70;10.30;;;0.10;99.90;;;;;;4234564;27;20446;-76
2023/11/28 10:22:29;;;;;;;27.80;11.37;;;0.10;99.90;;;;;;4241102;27;20452;-78
2023/11/28 10:24:32;;;;;;;24.27;10.63;;;0.10;99.90;;;;;;4234862;27;20513;-78
2023/11/28 10:26:34;;;;;;;26.70;11.17;;;0.10;99.90;;;;;;4244579;27;20535;-78
2023/11/28 10:28:36;;;;;;;22.13;10.07;;;0.10;99.90;;;;;;4242469;27;20493;-78
2023/11/28 10:30:40;;;;;;;24.13;10.73;;;0.10;99.90;;;;;;4236407;27;20498;-78
2023/11/28 10:32:41;;;;;;;24.20;11.10;;;0.10;99.90;;;;;;4232981;27;20445;-78
2023/11/28 10:34:56;;;;;;;26.20;10.80;;;0.10;99.90;;;;;;4241301;27;20459;-79